createdAt,value
2019-03-17T00:00:12.240Z,8.45
2019-03-17T00:01:12.400Z,8.52
2019-03-17T00:02:12.221Z,8.51
2019-03-17T00:03:12.238Z,8.51
2019-03-17T00:04:12.205Z,8.48
2019-03-17T00:05:12.185Z,8.53
2019-03-17T00:06:12.171Z,8.49
2019-03-17T00:07:12.163Z,8.48
2019-03-17T00:08:12.150Z,8.48
2019-03-17T00:09:12.169Z,8.42
2019-03-17T00:10:12.131Z,8.46
2019-03-17T00:11:12.133Z,8.31
2019-03-17T00:12:12.128Z,8.44
2019-03-17T00:13:12.115Z,8.48
2019-03-17T00:14:12.085Z,8.48
2019-03-17T00:15:12.075Z,8.45
2019-03-17T00:16:12.065Z,8.44
2019-03-17T00:17:12.065Z,8.49
2019-03-17T00:18:12.066Z,8.31
2019-03-17T00:19:12.049Z,8.45
2019-03-17T00:20:12.026Z,8.49
2019-03-17T00:21:12.010Z,8.46
2019-03-17T00:22:12.001Z,8.49
2019-03-17T00:23:11.993Z,8.51
2019-03-17T00:24:12.031Z,8.45
2019-03-17T00:25:11.967Z,8.48
2019-03-17T00:26:12.166Z,8.48
2019-03-17T00:27:11.949Z,8.49
2019-03-17T00:28:11.936Z,8.44
2019-03-17T00:29:11.943Z,8.46
2019-03-17T00:30:11.935Z,8.49
2019-03-17T00:31:23.286Z,8.46
2019-03-17T00:32:12.895Z,8.52
2019-03-17T00:33:11.886Z,8.51
2019-03-17T00:34:11.892Z,8.52
2019-03-17T00:35:11.862Z,8.56
2019-03-17T00:36:11.885Z,8.46
2019-03-17T00:37:11.842Z,8.44
2019-03-17T00:38:11.831Z,8.52
2019-03-17T00:39:11.836Z,8.52
2019-03-17T00:40:11.822Z,8.55
2019-03-17T00:41:11.869Z,8.56
2019-03-17T00:42:11.812Z,8.53
2019-03-17T00:43:11.776Z,8.49
2019-03-17T00:44:11.784Z,8.56
2019-03-17T00:45:12.062Z,8.60
2019-03-17T00:46:11.743Z,8.52
2019-03-17T00:47:11.790Z,8.55
2019-03-17T00:48:11.725Z,8.55
2019-03-17T00:49:11.711Z,8.46
2019-03-17T00:50:11.703Z,8.51
2019-03-17T00:51:11.711Z,8.56
2019-03-17T00:52:11.679Z,8.61
2019-03-17T00:53:11.700Z,8.63
2019-03-17T00:54:11.660Z,8.58
2019-03-17T00:55:11.668Z,8.64
2019-03-17T00:56:11.644Z,8.63
2019-03-17T00:57:11.642Z,8.63
2019-03-17T00:58:11.614Z,8.60
2019-03-17T00:59:11.628Z,8.61
2019-03-17T01:00:11.617Z,8.60
2019-03-17T01:01:11.585Z,8.53
2019-03-17T01:02:11.579Z,8.61
2019-03-17T01:03:11.579Z,8.56
2019-03-17T01:04:11.568Z,8.63
2019-03-17T01:05:11.544Z,8.58
2019-03-17T01:06:11.539Z,8.63
2019-03-17T01:07:11.521Z,8.60
2019-03-17T01:08:11.561Z,8.55
2019-03-17T01:09:11.514Z,8.60
2019-03-17T01:10:11.493Z,8.53
2019-03-17T01:11:11.477Z,8.52
2019-03-17T01:12:11.485Z,8.60
2019-03-17T01:13:11.458Z,8.64
2019-03-17T01:14:11.448Z,8.61
2019-03-17T01:15:11.450Z,8.60
2019-03-17T01:16:11.425Z,8.60
2019-03-17T01:17:11.413Z,8.60
2019-03-17T01:18:11.451Z,8.64
2019-03-17T01:19:11.407Z,8.66
2019-03-17T01:20:11.401Z,8.60
2019-03-17T01:21:11.384Z,8.63
2019-03-17T01:22:11.374Z,8.58
2019-03-17T01:23:11.352Z,8.56
2019-03-17T01:24:11.408Z,8.63
2019-03-17T01:25:11.352Z,8.60
2019-03-17T01:26:11.314Z,8.66
2019-03-17T01:27:11.336Z,8.61
2019-03-17T01:28:11.296Z,8.61
2019-03-17T01:29:11.346Z,8.66
2019-03-17T01:30:11.278Z,8.64
2019-03-17T01:31:11.293Z,8.69
2019-03-17T01:32:11.272Z,8.60
2019-03-17T01:33:11.264Z,8.67
2019-03-17T01:34:11.287Z,8.61
2019-03-17T01:35:11.245Z,8.67
2019-03-17T01:36:11.230Z,8.60
2019-03-17T01:37:11.217Z,8.56
2019-03-17T01:38:11.224Z,8.58
2019-03-17T01:39:11.278Z,8.63
2019-03-17T01:40:11.208Z,8.64
2019-03-17T01:41:11.161Z,8.66
2019-03-17T01:42:11.171Z,8.60
2019-03-17T01:43:11.134Z,8.58
2019-03-17T01:44:11.150Z,8.63
2019-03-17T01:45:11.149Z,8.55
2019-03-17T01:46:11.117Z,8.60
2019-03-17T01:47:11.103Z,8.60
2019-03-17T01:48:11.109Z,8.60
2019-03-17T01:49:11.073Z,8.60
2019-03-17T01:50:11.069Z,8.55
2019-03-17T01:51:11.112Z,8.61
2019-03-17T01:52:11.062Z,8.60
2019-03-17T01:53:11.026Z,8.58
2019-03-17T01:54:11.041Z,8.60
2019-03-17T01:55:11.008Z,8.56
2019-03-17T01:56:10.997Z,8.51
2019-03-17T01:57:11.025Z,8.64
2019-03-17T01:58:10.974Z,8.63
2019-03-17T01:59:10.967Z,8.55
2019-03-17T02:00:10.963Z,8.53
2019-03-17T02:01:12.030Z,8.63
2019-03-17T02:02:10.955Z,8.63
2019-03-17T02:03:10.941Z,8.69
2019-03-17T02:04:10.909Z,8.63
2019-03-17T02:05:21.397Z,8.60
2019-03-17T02:06:11.890Z,8.51
2019-03-17T02:07:10.878Z,8.58
2019-03-17T02:08:10.885Z,8.61
2019-03-17T02:09:10.872Z,8.49
2019-03-17T02:10:10.863Z,8.48
2019-03-17T02:11:10.835Z,8.52
2019-03-17T02:12:10.827Z,8.49
2019-03-17T02:13:10.817Z,8.51
2019-03-17T02:14:10.818Z,8.48
2019-03-17T02:15:10.816Z,8.49
2019-03-17T02:16:10.782Z,8.51
2019-03-17T02:17:10.770Z,8.53
2019-03-17T02:18:10.760Z,8.42
2019-03-17T02:19:10.751Z,8.48
2019-03-17T02:20:10.752Z,8.46
2019-03-17T02:21:10.779Z,8.48
2019-03-17T02:22:10.732Z,8.48
2019-03-17T02:23:10.708Z,8.45
2019-03-17T02:24:10.744Z,8.46
2019-03-17T02:25:10.686Z,8.53
2019-03-17T02:26:10.674Z,8.56
2019-03-17T02:27:10.702Z,8.53
2019-03-17T02:28:10.653Z,8.60
2019-03-17T02:29:10.646Z,8.60
2019-03-17T02:30:10.763Z,8.58
2019-03-17T02:31:10.628Z,8.58
2019-03-17T02:32:10.626Z,8.60
2019-03-17T02:33:10.611Z,8.61
2019-03-17T02:34:12.160Z,8.56
2019-03-17T02:35:10.604Z,8.61
2019-03-17T02:36:10.572Z,8.55
2019-03-17T02:37:10.557Z,8.55
2019-03-17T02:38:10.572Z,8.49
2019-03-17T02:39:10.535Z,8.46
2019-03-17T02:40:10.558Z,8.52
2019-03-17T02:41:10.518Z,8.55
2019-03-17T02:42:10.509Z,8.63
2019-03-17T02:43:10.500Z,8.53
2019-03-17T02:44:10.505Z,8.48
2019-03-17T02:45:10.476Z,8.48
2019-03-17T02:46:10.480Z,8.49
2019-03-17T02:47:10.453Z,8.53
2019-03-17T02:48:10.458Z,8.49
2019-03-17T02:49:10.431Z,8.55
2019-03-17T02:50:10.431Z,8.53
2019-03-17T02:51:10.419Z,8.55
2019-03-17T02:52:10.424Z,8.56
2019-03-17T02:53:10.436Z,8.58
2019-03-17T02:54:10.421Z,8.63
2019-03-17T02:55:10.441Z,8.61
2019-03-17T02:56:10.370Z,8.56
2019-03-17T02:57:10.344Z,8.56
2019-03-17T02:58:10.352Z,8.58
2019-03-17T02:59:10.321Z,8.56
2019-03-17T03:00:10.352Z,8.58
2019-03-17T03:01:10.310Z,8.56
2019-03-17T03:02:10.291Z,8.56
2019-03-17T03:03:10.301Z,8.48
2019-03-17T03:04:10.273Z,8.58
2019-03-17T03:05:10.274Z,8.56
2019-03-17T03:06:10.246Z,8.49
2019-03-17T03:07:10.242Z,8.55
2019-03-17T03:08:10.232Z,8.48
2019-03-17T03:09:10.236Z,8.51
2019-03-17T03:10:10.219Z,8.44
2019-03-17T03:11:10.217Z,8.46
2019-03-17T03:12:10.199Z,8.45
2019-03-17T03:13:10.172Z,8.42
2019-03-17T03:14:10.243Z,8.37
2019-03-17T03:15:10.206Z,8.37
2019-03-17T03:16:10.155Z,8.36
2019-03-17T03:17:10.195Z,8.36
2019-03-17T03:18:10.127Z,8.37
2019-03-17T03:19:10.110Z,8.49
2019-03-17T03:20:10.112Z,8.34
2019-03-17T03:21:10.105Z,8.42
2019-03-17T03:22:10.080Z,8.41
2019-03-17T03:23:10.080Z,8.37
2019-03-17T03:24:10.064Z,8.37
2019-03-17T03:25:10.053Z,8.34
2019-03-17T03:26:10.035Z,8.49
2019-03-17T03:27:10.053Z,8.38
2019-03-17T03:28:10.017Z,8.41
2019-03-17T03:29:10.035Z,8.34
2019-03-17T03:30:09.993Z,8.44
2019-03-17T03:31:09.980Z,8.41
2019-03-17T03:32:09.974Z,8.41
2019-03-17T03:33:09.989Z,8.41
2019-03-17T03:34:09.950Z,8.37
2019-03-17T03:35:10.087Z,8.46
2019-03-17T03:36:11.888Z,8.42
2019-03-17T03:37:09.929Z,8.36
2019-03-17T03:38:09.916Z,8.49
2019-03-17T03:39:09.916Z,8.46
2019-03-17T03:40:09.887Z,8.48
2019-03-17T03:41:09.875Z,8.41
2019-03-17T03:42:09.862Z,8.48
2019-03-17T03:43:09.859Z,8.34
2019-03-17T03:44:09.842Z,8.37
2019-03-17T03:45:09.849Z,8.46
2019-03-17T03:46:09.817Z,8.36
2019-03-17T03:47:09.808Z,8.42
2019-03-17T03:48:09.802Z,8.37
2019-03-17T03:49:09.803Z,8.51
2019-03-17T03:50:09.809Z,8.41
2019-03-17T03:51:09.783Z,8.46
2019-03-17T03:52:09.772Z,8.37
2019-03-17T03:53:09.745Z,8.49
2019-03-17T03:54:09.747Z,8.37
2019-03-17T03:55:09.733Z,8.36
2019-03-17T03:56:09.778Z,8.38
2019-03-17T03:57:09.746Z,8.36
2019-03-17T03:58:09.728Z,8.37
2019-03-17T03:59:09.679Z,8.30
2019-03-17T04:00:09.691Z,8.31
2019-03-17T04:01:09.676Z,8.28
2019-03-17T04:02:09.651Z,8.28
2019-03-17T04:03:09.670Z,8.20
2019-03-17T04:04:09.627Z,8.26
2019-03-17T04:05:09.621Z,8.27
2019-03-17T04:06:25.246Z,8.27
2019-03-17T04:07:10.612Z,8.24
2019-03-17T04:08:09.593Z,8.30
2019-03-17T04:09:09.600Z,8.27
2019-03-17T04:10:09.567Z,8.19
2019-03-17T04:11:09.552Z,8.26
2019-03-17T04:12:09.550Z,8.23
2019-03-17T04:13:09.545Z,8.24
2019-03-17T04:14:09.522Z,8.23
2019-03-17T04:15:09.539Z,8.23
2019-03-17T04:16:09.526Z,8.28
2019-03-17T04:17:09.543Z,8.26
2019-03-17T04:18:09.478Z,8.31
2019-03-17T04:19:09.480Z,8.10
2019-03-17T04:20:09.459Z,8.18
2019-03-17T04:21:09.464Z,8.13
2019-03-17T04:22:09.440Z,8.01
2019-03-17T04:23:09.445Z,8.05
2019-03-17T04:24:09.413Z,8.06
2019-03-17T04:25:09.429Z,7.98
2019-03-17T04:26:09.395Z,7.95
2019-03-17T04:27:09.397Z,7.95
2019-03-17T04:28:09.373Z,7.97
2019-03-17T04:29:09.380Z,7.93
2019-03-17T04:30:09.357Z,7.87
2019-03-17T04:31:09.341Z,7.87
2019-03-17T04:32:09.348Z,7.77
2019-03-17T04:33:09.317Z,7.75
2019-03-17T04:34:09.310Z,7.69
2019-03-17T04:35:09.323Z,7.72
2019-03-17T04:36:09.292Z,7.75
2019-03-17T04:37:09.275Z,7.77
2019-03-17T04:38:09.285Z,7.73
2019-03-17T04:39:09.270Z,7.72
2019-03-17T04:40:09.244Z,7.72
2019-03-17T04:41:09.251Z,7.67
2019-03-17T04:42:09.239Z,7.75
2019-03-17T04:43:09.209Z,7.76
2019-03-17T04:44:20.244Z,7.75
2019-03-17T04:45:10.210Z,7.75
2019-03-17T04:46:09.181Z,7.73
2019-03-17T04:47:09.193Z,7.82
2019-03-17T04:48:09.160Z,7.90
2019-03-17T04:49:09.172Z,7.73
2019-03-17T04:50:09.143Z,7.83
2019-03-17T04:51:09.125Z,7.73
2019-03-17T04:52:09.132Z,7.85
2019-03-17T04:53:09.106Z,7.88
2019-03-17T04:54:09.103Z,7.85
2019-03-17T04:55:09.106Z,7.83
2019-03-17T04:56:09.075Z,7.87
2019-03-17T04:57:09.085Z,7.85
2019-03-17T04:58:09.051Z,7.83
2019-03-17T04:59:09.046Z,7.87
2019-03-17T05:00:09.032Z,7.91
2019-03-17T05:01:09.023Z,7.97
2019-03-17T05:02:09.027Z,7.83
2019-03-17T05:03:09.022Z,7.90
2019-03-17T05:04:08.984Z,7.90
2019-03-17T05:05:08.992Z,7.85
2019-03-17T05:06:08.970Z,7.87
2019-03-17T05:07:08.959Z,7.73
2019-03-17T05:08:08.963Z,7.69
2019-03-17T05:09:08.979Z,7.77
2019-03-17T05:10:08.945Z,7.69
2019-03-17T05:11:08.911Z,7.58
2019-03-17T05:12:08.926Z,7.51
2019-03-17T05:13:08.918Z,7.56
2019-03-17T05:14:08.904Z,7.42
2019-03-17T05:15:08.872Z,7.45
2019-03-17T05:16:08.865Z,7.48
2019-03-17T05:17:08.952Z,7.45
2019-03-17T05:18:08.839Z,7.38
2019-03-17T05:19:08.841Z,7.35
2019-03-17T05:20:08.940Z,7.39
2019-03-17T05:21:09.053Z,7.28
2019-03-17T05:22:08.812Z,7.29
2019-03-17T05:23:08.937Z,7.20
2019-03-17T05:24:08.781Z,7.20
2019-03-17T05:25:08.806Z,7.15
2019-03-17T05:26:08.824Z,7.18
2019-03-17T05:27:08.771Z,7.17
2019-03-17T05:28:08.750Z,7.17
2019-03-17T05:29:08.747Z,7.07
2019-03-17T05:30:08.709Z,7.03
2019-03-17T05:31:08.713Z,7.02
2019-03-17T05:32:08.696Z,7.07
2019-03-17T05:33:08.720Z,7.03
2019-03-17T05:34:08.722Z,7.03
2019-03-17T05:35:08.656Z,7.02
2019-03-17T05:36:08.654Z,7.05
2019-03-17T05:37:08.642Z,7.00
2019-03-17T05:38:08.637Z,7.06
2019-03-17T05:39:08.717Z,6.93
2019-03-17T05:40:08.607Z,6.93
2019-03-17T05:41:08.586Z,6.88
2019-03-17T05:42:08.620Z,6.96
2019-03-17T05:43:08.570Z,6.92
2019-03-17T05:44:08.559Z,6.95
2019-03-17T05:45:08.543Z,6.82
2019-03-17T05:46:08.539Z,6.85
2019-03-17T05:47:08.580Z,6.93
2019-03-17T05:48:08.514Z,6.87
2019-03-17T05:49:08.515Z,6.93
2019-03-17T05:50:08.492Z,6.89
2019-03-17T05:51:08.482Z,6.92
2019-03-17T05:52:08.470Z,6.88
2019-03-17T05:53:08.494Z,6.92
2019-03-17T05:54:08.456Z,6.85
2019-03-17T05:55:08.442Z,6.92
2019-03-17T05:56:08.428Z,6.87
2019-03-17T05:57:08.414Z,6.88
2019-03-17T05:58:08.512Z,6.92
2019-03-17T05:59:08.422Z,6.87
2019-03-17T06:00:08.392Z,6.88
2019-03-17T06:01:08.381Z,6.82
2019-03-17T06:02:08.363Z,6.89
2019-03-17T06:03:08.452Z,6.87
2019-03-17T06:04:08.341Z,6.85
2019-03-17T06:05:08.346Z,6.88
2019-03-17T06:06:08.327Z,6.85
2019-03-17T06:07:18.200Z,6.81
2019-03-17T06:08:09.317Z,6.82
2019-03-17T06:09:08.290Z,6.88
2019-03-17T06:10:08.280Z,6.85
2019-03-17T06:11:08.270Z,6.84
2019-03-17T06:12:08.261Z,6.79
2019-03-17T06:13:08.242Z,6.78
2019-03-17T06:14:08.268Z,6.77
2019-03-17T06:15:08.255Z,6.84
2019-03-17T06:16:08.215Z,6.77
2019-03-17T06:17:08.214Z,6.74
2019-03-17T06:18:08.290Z,6.77
2019-03-17T06:19:08.207Z,6.75
2019-03-17T06:20:08.178Z,6.78
2019-03-17T06:21:08.175Z,6.75
2019-03-17T06:22:08.177Z,6.75
2019-03-17T06:23:08.167Z,6.74
2019-03-17T06:24:08.131Z,6.70
2019-03-17T06:25:08.154Z,6.78
2019-03-17T06:26:08.134Z,6.78
2019-03-17T06:27:08.107Z,6.74
2019-03-17T06:28:08.107Z,6.70
2019-03-17T06:29:08.077Z,6.79
2019-03-17T06:30:08.058Z,6.74
2019-03-17T06:31:08.048Z,6.75
2019-03-17T06:32:08.048Z,6.78
2019-03-17T06:33:08.058Z,6.81
2019-03-17T06:34:08.017Z,6.77
2019-03-17T06:35:08.067Z,6.72
2019-03-17T06:36:08.020Z,6.77
2019-03-17T06:37:07.982Z,6.77
2019-03-17T06:38:07.995Z,6.78
2019-03-17T06:39:07.983Z,6.72
2019-03-17T06:40:07.985Z,6.78
2019-03-17T06:41:07.965Z,6.75
2019-03-17T06:42:07.937Z,6.72
2019-03-17T06:43:07.961Z,6.77
2019-03-17T06:44:07.914Z,6.77
2019-03-17T06:45:07.919Z,6.75
2019-03-17T06:46:08.086Z,6.74
2019-03-17T06:47:07.919Z,6.85
2019-03-17T06:48:07.906Z,6.79
2019-03-17T06:49:07.879Z,6.79
2019-03-17T06:50:07.854Z,6.75
2019-03-17T06:51:07.848Z,6.77
2019-03-17T06:52:07.828Z,6.81
2019-03-17T06:53:07.851Z,6.74
2019-03-17T06:54:07.825Z,6.78
2019-03-17T06:55:07.785Z,6.72
2019-03-17T06:56:07.796Z,6.77
2019-03-17T06:57:07.881Z,6.79
2019-03-17T06:58:07.793Z,6.77
2019-03-17T06:59:07.771Z,6.75
2019-03-17T07:00:07.746Z,6.75
2019-03-17T07:01:07.735Z,6.75
2019-03-17T07:02:07.726Z,6.79
2019-03-17T07:03:07.770Z,6.77
2019-03-17T07:04:07.748Z,6.74
2019-03-17T07:05:07.712Z,6.85
2019-03-17T07:06:07.673Z,6.79
2019-03-17T07:07:07.961Z,6.85
2019-03-17T07:08:07.721Z,6.74
2019-03-17T07:09:07.659Z,6.79
2019-03-17T07:10:07.629Z,6.84
2019-03-17T07:11:07.613Z,6.74
2019-03-17T07:12:07.629Z,6.78
2019-03-17T07:13:07.662Z,6.78
2019-03-17T07:14:07.593Z,6.74
2019-03-17T07:15:07.574Z,6.72
2019-03-17T07:16:07.582Z,6.72
2019-03-17T07:17:07.552Z,6.70
2019-03-17T07:18:07.576Z,6.72
2019-03-17T07:19:07.566Z,6.84
2019-03-17T07:20:07.514Z,6.77
2019-03-17T07:21:07.505Z,6.75
2019-03-17T07:22:07.529Z,6.77
2019-03-17T07:23:07.489Z,6.79
2019-03-17T07:24:07.473Z,6.72
2019-03-17T07:25:07.487Z,6.74
2019-03-17T07:26:07.450Z,6.77
2019-03-17T07:27:07.463Z,6.89
2019-03-17T07:28:07.650Z,6.92
2019-03-17T07:29:07.446Z,6.89
2019-03-17T07:30:07.415Z,6.85
2019-03-17T07:31:07.397Z,6.84
2019-03-17T07:32:07.384Z,6.72
2019-03-17T07:33:07.386Z,6.78
2019-03-17T07:34:07.394Z,6.87
2019-03-17T07:35:07.357Z,6.81
2019-03-17T07:36:07.342Z,6.78
2019-03-17T07:37:07.356Z,6.85
2019-03-17T07:38:07.334Z,6.74
2019-03-17T07:39:12.029Z,6.88
2019-03-17T07:40:08.348Z,6.77
2019-03-17T07:41:07.294Z,6.85
2019-03-17T07:42:07.293Z,6.82
2019-03-17T07:43:07.356Z,6.88
2019-03-17T07:44:07.301Z,6.82
2019-03-17T07:45:07.254Z,6.79
2019-03-17T07:46:07.239Z,6.87
2019-03-17T07:47:07.262Z,6.85
2019-03-17T07:48:07.267Z,6.75
2019-03-17T07:49:08.412Z,6.85
2019-03-17T07:50:07.271Z,6.82
2019-03-17T07:51:07.179Z,6.74
2019-03-17T07:52:07.789Z,6.75
2019-03-17T07:53:07.185Z,6.70
2019-03-17T07:54:07.182Z,6.70
2019-03-17T07:55:07.143Z,6.79
2019-03-17T07:56:07.149Z,6.72
2019-03-17T07:57:07.174Z,6.64
2019-03-17T07:58:07.764Z,6.69
2019-03-17T07:59:07.119Z,6.69
2019-03-17T08:00:07.150Z,6.75
2019-03-17T08:01:07.724Z,6.69
2019-03-17T08:02:07.094Z,6.74
2019-03-17T08:03:07.093Z,6.77
2019-03-17T08:04:07.082Z,6.70
2019-03-17T08:05:07.034Z,6.75
2019-03-17T08:06:07.022Z,6.63
2019-03-17T08:07:07.086Z,6.66
2019-03-17T08:08:09.693Z,6.75
2019-03-17T08:09:07.045Z,6.72
2019-03-17T08:10:07.419Z,6.72
2019-03-17T08:11:06.984Z,6.72
2019-03-17T08:12:07.729Z,6.67
2019-03-17T08:13:06.988Z,6.63
2019-03-17T08:14:06.949Z,6.70
2019-03-17T08:15:06.931Z,6.70
2019-03-17T08:16:06.920Z,6.70
2019-03-17T08:17:06.919Z,6.64
2019-03-17T08:18:07.783Z,6.63
2019-03-17T08:19:06.904Z,6.67
2019-03-17T08:20:06.909Z,6.67
2019-03-17T08:21:06.890Z,6.57
2019-03-17T08:22:06.862Z,6.69
2019-03-17T08:23:06.855Z,6.63
2019-03-17T08:24:06.957Z,6.59
2019-03-17T08:25:06.826Z,6.59
2019-03-17T08:26:06.819Z,6.52
2019-03-17T08:27:06.828Z,6.51
2019-03-17T08:28:06.874Z,6.49
2019-03-17T08:29:06.783Z,6.46
2019-03-17T08:30:06.802Z,6.48
2019-03-17T08:31:06.874Z,6.48
2019-03-17T08:32:06.745Z,6.44
2019-03-17T08:33:06.736Z,6.48
2019-03-17T08:34:06.753Z,6.49
2019-03-17T08:35:06.722Z,6.31
2019-03-17T08:36:06.732Z,6.24
2019-03-17T08:37:06.731Z,6.14
2019-03-17T08:38:06.683Z,6.12
2019-03-17T08:39:06.685Z,6.12
2019-03-17T08:40:06.719Z,6.04
2019-03-17T08:41:06.651Z,6.12
2019-03-17T08:42:06.644Z,6.05
2019-03-17T08:43:06.634Z,6.07
2019-03-17T08:44:06.659Z,6.08
2019-03-17T08:45:06.621Z,6.09
2019-03-17T08:46:06.598Z,6.09
2019-03-17T08:47:06.585Z,6.08
2019-03-17T08:48:06.573Z,6.09
2019-03-17T08:49:06.593Z,6.08
2019-03-17T08:50:06.583Z,6.09
2019-03-17T08:51:06.544Z,6.12
2019-03-17T08:52:06.740Z,6.07
2019-03-17T08:53:06.530Z,6.22
2019-03-17T08:54:06.562Z,6.19
2019-03-17T08:55:06.529Z,6.24
2019-03-17T08:56:06.499Z,6.24
2019-03-17T08:57:06.496Z,6.28
2019-03-17T08:58:06.477Z,6.38
2019-03-17T08:59:06.521Z,6.33
2019-03-17T09:00:06.467Z,6.30
2019-03-17T09:01:06.449Z,6.33
2019-03-17T09:02:06.428Z,6.36
2019-03-17T09:03:06.421Z,6.46
2019-03-17T09:04:06.402Z,6.52
2019-03-17T09:05:06.394Z,6.49
2019-03-17T09:06:06.395Z,6.48
2019-03-17T09:07:06.376Z,6.45
2019-03-17T09:08:06.376Z,6.31
2019-03-17T09:09:06.363Z,6.39
2019-03-17T09:10:06.367Z,6.38
2019-03-17T09:11:06.324Z,6.35
2019-03-17T09:12:06.346Z,6.36
2019-03-17T09:13:07.425Z,6.31
2019-03-17T09:14:06.319Z,6.46
2019-03-17T09:15:06.291Z,6.66
2019-03-17T09:16:06.280Z,6.60
2019-03-17T09:17:14.303Z,6.75
2019-03-17T09:18:07.341Z,6.78
2019-03-17T09:19:08.237Z,6.75
2019-03-17T09:20:06.275Z,6.70
2019-03-17T09:21:06.294Z,6.75
2019-03-17T09:22:06.272Z,6.72
2019-03-17T09:23:06.205Z,6.77
2019-03-17T09:24:16.734Z,6.75
2019-03-17T09:25:07.206Z,6.74
2019-03-17T09:26:06.168Z,6.81
2019-03-17T09:27:06.715Z,6.77
2019-03-17T09:28:06.163Z,6.74
2019-03-17T09:29:06.740Z,6.85
2019-03-17T09:30:06.135Z,6.89
2019-03-17T09:31:07.555Z,6.87
2019-03-17T09:32:06.103Z,6.84
2019-03-17T09:33:06.104Z,7.18
2019-03-17T09:34:06.272Z,7.07
2019-03-17T09:35:06.091Z,7.05
2019-03-17T09:36:06.070Z,6.99
2019-03-17T09:37:06.069Z,6.93
2019-03-17T09:38:06.055Z,6.96
2019-03-17T09:39:06.038Z,7.03
2019-03-17T09:40:06.035Z,7.14
2019-03-17T09:41:06.014Z,7.15
2019-03-17T09:42:06.019Z,7.32
2019-03-17T09:43:06.781Z,7.38
2019-03-17T09:44:06.034Z,7.42
2019-03-17T09:45:06.758Z,7.56
2019-03-17T09:46:06.032Z,7.61
2019-03-17T09:47:05.969Z,7.73
2019-03-17T09:48:06.777Z,7.56
2019-03-17T09:49:05.923Z,7.58
2019-03-17T09:50:05.924Z,7.51
2019-03-17T09:51:05.949Z,7.54
2019-03-17T09:52:05.920Z,7.50
2019-03-17T09:53:05.875Z,7.42
2019-03-17T09:54:05.881Z,7.40
2019-03-17T09:55:05.917Z,7.42
2019-03-17T09:56:05.880Z,7.48
2019-03-17T09:57:05.929Z,7.70
2019-03-17T09:58:05.824Z,7.70
2019-03-17T09:59:05.860Z,7.60
2019-03-17T10:00:05.886Z,7.67
2019-03-17T10:01:05.813Z,7.73
2019-03-17T10:02:05.835Z,7.75
2019-03-17T10:03:05.766Z,7.73
2019-03-17T10:04:05.847Z,7.63
2019-03-17T10:05:05.773Z,7.48
2019-03-17T10:06:05.806Z,7.42
2019-03-17T10:07:05.734Z,7.38
2019-03-17T10:08:05.715Z,7.32
2019-03-17T10:09:05.734Z,7.29
2019-03-17T10:10:05.739Z,7.17
2019-03-17T10:11:05.751Z,7.20
2019-03-17T10:12:05.666Z,7.24
2019-03-17T10:13:05.661Z,7.25
2019-03-17T10:14:05.659Z,7.14
2019-03-17T10:15:05.641Z,7.11
2019-03-17T10:16:05.634Z,7.03
2019-03-17T10:17:05.760Z,7.07
2019-03-17T10:18:05.645Z,7.03
2019-03-17T10:19:05.631Z,7.15
2019-03-17T10:20:05.588Z,7.29
2019-03-17T10:21:05.623Z,7.33
2019-03-17T10:22:05.562Z,7.39
2019-03-17T10:23:05.620Z,7.25
2019-03-17T10:24:05.594Z,7.24
2019-03-17T10:25:05.537Z,7.21
2019-03-17T10:26:05.553Z,7.23
2019-03-17T10:27:07.242Z,7.32
2019-03-17T10:28:05.643Z,7.32
2019-03-17T10:29:05.515Z,7.33
2019-03-17T10:30:05.479Z,7.31
2019-03-17T10:31:05.521Z,7.39
2019-03-17T10:32:05.483Z,7.39
2019-03-17T10:33:05.455Z,7.35
2019-03-17T10:34:05.445Z,7.42
2019-03-17T10:35:05.453Z,7.40
2019-03-17T10:36:05.457Z,7.53
2019-03-17T10:37:05.609Z,7.39
2019-03-17T10:38:05.394Z,7.39
2019-03-17T10:39:12.340Z,7.39
2019-03-17T10:40:06.378Z,7.33
2019-03-17T10:41:05.436Z,7.38
2019-03-17T10:42:05.389Z,7.36
2019-03-17T10:43:05.386Z,7.29
2019-03-17T10:44:05.353Z,7.25
2019-03-17T10:45:05.357Z,7.18
2019-03-17T10:46:05.354Z,7.29
2019-03-17T10:47:05.327Z,7.29
2019-03-17T10:48:05.295Z,7.35
2019-03-17T10:49:05.292Z,7.35
2019-03-17T10:50:05.286Z,7.23
2019-03-17T10:51:05.296Z,7.29
2019-03-17T10:52:05.269Z,7.24
2019-03-17T10:53:05.235Z,7.24
2019-03-17T10:54:05.231Z,7.20
2019-03-17T10:55:05.235Z,7.36
2019-03-17T10:56:05.242Z,7.39
2019-03-17T10:57:05.192Z,7.50
2019-03-17T10:58:05.445Z,7.56
2019-03-17T10:59:05.244Z,7.61
2019-03-17T11:00:05.194Z,7.57
2019-03-17T11:01:05.146Z,7.56
2019-03-17T11:02:05.164Z,7.58
2019-03-17T11:03:05.173Z,7.53
2019-03-17T11:04:05.152Z,7.54
2019-03-17T11:05:05.138Z,7.51
2019-03-17T11:06:05.158Z,7.43
2019-03-17T11:07:05.149Z,7.42
2019-03-17T11:08:05.067Z,7.31
2019-03-17T11:09:05.083Z,7.20
2019-03-17T11:10:05.124Z,7.17
2019-03-17T11:11:05.057Z,7.14
2019-03-17T11:12:05.062Z,7.20
2019-03-17T11:13:05.019Z,7.21
2019-03-17T11:14:05.029Z,7.20
2019-03-17T11:15:05.026Z,7.11
2019-03-17T11:16:05.028Z,7.06
2019-03-17T11:17:05.042Z,7.00
2019-03-17T11:18:04.985Z,7.05
2019-03-17T11:19:05.159Z,6.99
2019-03-17T11:20:04.943Z,7.00
2019-03-17T11:21:04.934Z,6.97
2019-03-17T11:22:04.970Z,6.96
2019-03-17T11:23:04.933Z,6.85
2019-03-17T11:24:04.908Z,6.93
2019-03-17T11:25:04.904Z,6.87
2019-03-17T11:26:04.887Z,7.02
2019-03-17T11:27:04.902Z,7.00
2019-03-17T11:28:04.880Z,7.07
2019-03-17T11:29:04.904Z,7.14
2019-03-17T11:30:04.843Z,7.13
2019-03-17T11:31:04.838Z,7.21
2019-03-17T11:32:06.530Z,7.35
2019-03-17T11:33:04.813Z,7.36
2019-03-17T11:34:04.796Z,7.45
2019-03-17T11:35:04.800Z,7.39
2019-03-17T11:36:04.766Z,7.36
2019-03-17T11:37:04.789Z,7.23
2019-03-17T11:38:04.840Z,7.18
2019-03-17T11:39:04.749Z,7.14
2019-03-17T11:40:04.765Z,7.06
2019-03-17T11:41:04.806Z,7.03
2019-03-17T11:42:04.730Z,6.87
2019-03-17T11:43:04.701Z,6.88
2019-03-17T11:44:04.685Z,6.89
2019-03-17T11:45:04.685Z,6.89
2019-03-17T11:46:04.693Z,7.05
2019-03-17T11:47:04.690Z,7.23
2019-03-17T11:48:04.640Z,7.39
2019-03-17T11:49:04.637Z,7.45
2019-03-17T11:50:04.644Z,7.45
2019-03-17T11:51:04.612Z,7.40
2019-03-17T11:52:04.612Z,7.24
2019-03-17T11:53:04.601Z,7.28
2019-03-17T11:54:04.577Z,7.31
2019-03-17T11:55:04.634Z,7.29
2019-03-17T11:56:04.555Z,7.28
2019-03-17T11:57:04.547Z,7.13
2019-03-17T11:58:04.552Z,7.21
2019-03-17T11:59:04.547Z,7.18
2019-03-17T12:00:04.511Z,7.13
2019-03-17T12:01:04.506Z,7.05
2019-03-17T12:02:04.495Z,6.96
2019-03-17T12:03:04.482Z,6.99
2019-03-17T12:04:04.521Z,6.92
2019-03-17T12:05:04.525Z,6.88
2019-03-17T12:06:04.449Z,6.64
2019-03-17T12:07:04.488Z,6.64
2019-03-17T12:08:04.433Z,6.59
2019-03-17T12:09:04.656Z,6.51
2019-03-17T12:10:04.453Z,6.42
2019-03-17T12:11:04.397Z,6.36
2019-03-17T12:12:04.455Z,6.42
2019-03-17T12:13:04.391Z,6.30
2019-03-17T12:14:04.376Z,6.24
2019-03-17T12:15:04.351Z,6.26
2019-03-17T12:16:04.353Z,6.22
2019-03-17T12:17:04.356Z,6.27
2019-03-17T12:18:04.384Z,6.08
2019-03-17T12:19:04.311Z,6.11
2019-03-17T12:20:04.309Z,6.05
2019-03-17T12:21:04.291Z,6.11
2019-03-17T12:22:08.886Z,6.24
2019-03-17T12:23:04.344Z,6.39
2019-03-17T12:24:04.259Z,6.45
2019-03-17T12:25:04.257Z,6.60
2019-03-17T12:26:04.234Z,6.62
2019-03-17T12:27:04.225Z,6.69
2019-03-17T12:28:04.240Z,6.64
2019-03-17T12:29:04.294Z,6.78
2019-03-17T12:30:04.197Z,6.88
2019-03-17T12:31:04.212Z,7.00
2019-03-17T12:32:04.184Z,7.06
2019-03-17T12:33:04.184Z,7.11
2019-03-17T12:34:04.184Z,7.23
2019-03-17T12:35:04.145Z,7.45
2019-03-17T12:36:04.159Z,7.54
2019-03-17T12:37:04.155Z,7.82
2019-03-17T12:38:04.110Z,8.06
2019-03-17T12:39:04.094Z,8.01
2019-03-17T12:40:04.165Z,8.06
2019-03-17T12:41:04.077Z,8.05
2019-03-17T12:42:04.101Z,8.00
2019-03-17T12:43:04.062Z,7.87
2019-03-17T12:44:04.042Z,7.73
2019-03-17T12:45:04.046Z,7.70
2019-03-17T12:46:04.074Z,7.58
2019-03-17T12:47:04.042Z,7.60
2019-03-17T12:48:04.030Z,7.48
2019-03-17T12:49:04.009Z,7.54
2019-03-17T12:50:03.984Z,7.54
2019-03-17T12:51:03.997Z,7.58
2019-03-17T12:52:03.954Z,7.61
2019-03-17T12:53:03.994Z,7.53
2019-03-17T12:54:03.986Z,7.58
2019-03-17T12:55:03.942Z,7.61
2019-03-17T12:56:03.911Z,7.54
2019-03-17T12:57:03.908Z,7.58
2019-03-17T12:58:04.111Z,7.72
2019-03-17T12:59:03.905Z,7.83
2019-03-17T13:00:03.879Z,7.94
2019-03-17T13:01:03.874Z,7.97
2019-03-17T13:02:03.874Z,8.08
2019-03-17T13:03:03.872Z,8.09
2019-03-17T13:04:03.845Z,8.13
2019-03-17T13:05:03.818Z,7.87
2019-03-17T13:06:03.813Z,7.83
2019-03-17T13:07:03.797Z,7.82
2019-03-17T13:08:03.860Z,7.93
2019-03-17T13:09:03.879Z,7.98
2019-03-17T13:10:15.144Z,8.06
2019-03-17T13:11:04.749Z,8.12
2019-03-17T13:12:03.800Z,7.98
2019-03-17T13:13:03.760Z,7.87
2019-03-17T13:14:03.720Z,7.80
2019-03-17T13:15:03.745Z,7.85
2019-03-17T13:16:03.724Z,7.87
2019-03-17T13:17:03.690Z,7.72
2019-03-17T13:18:03.722Z,7.72